createdAt,value
2024-01-16T00:00:34.530Z,-1.61
2024-01-16T00:03:03.036Z,-1.64
2024-01-16T00:05:29.607Z,-1.62
2024-01-16T00:07:56.209Z,-1.63
2024-01-16T00:10:24.313Z,-1.63
2024-01-16T00:12:50.710Z,-1.69
2024-01-16T00:15:17.470Z,-1.74
2024-01-16T00:17:45.603Z,-1.73
2024-01-16T00:20:12.450Z,-1.77
2024-01-16T00:22:39.062Z,-1.79
2024-01-16T00:25:06.632Z,-1.82
2024-01-16T00:27:33.146Z,-1.82
2024-01-16T00:29:59.609Z,-1.83
2024-01-16T00:32:26.222Z,-1.90
2024-01-16T00:34:54.146Z,-1.88
2024-01-16T00:37:20.729Z,-1.88
2024-01-16T00:39:47.591Z,-1.88
2024-01-16T00:42:14.032Z,-1.85
2024-01-16T00:44:40.588Z,-1.87
2024-01-16T00:47:07.177Z,-1.89
2024-01-16T00:49:33.851Z,-1.93
2024-01-16T00:52:01.720Z,-1.89
2024-01-16T00:54:28.148Z,-1.92
2024-01-16T00:56:54.585Z,-1.95
2024-01-16T00:59:21.345Z,-1.98
2024-01-16T01:01:48.070Z,-2.07
2024-01-16T01:04:14.521Z,-2.11
2024-01-16T01:06:41.020Z,-2.13
2024-01-16T01:09:08.819Z,-2.13
2024-01-16T01:11:35.632Z,-2.14
2024-01-16T01:14:02.098Z,-2.14
2024-01-16T01:16:28.616Z,-2.14
2024-01-16T01:18:55.272Z,-2.19
2024-01-16T01:21:21.840Z,-2.19
2024-01-16T01:23:48.408Z,-2.17
2024-01-16T01:26:16.366Z,-2.15
2024-01-16T01:28:42.884Z,-2.19
2024-01-16T01:31:09.966Z,-2.18
2024-01-16T01:33:36.727Z,-2.21
2024-01-16T01:36:03.525Z,-2.23
2024-01-16T01:38:30.072Z,-2.30
2024-01-16T01:40:56.939Z,-2.35
2024-01-16T01:43:26.449Z,-2.38
2024-01-16T01:46:09.437Z,-2.44
2024-01-16T01:48:37.090Z,-2.51
2024-01-16T01:51:03.961Z,-2.53
2024-01-16T01:53:32.095Z,-2.57
2024-01-16T01:55:58.904Z,-2.61
2024-01-16T01:58:27.192Z,-2.64
2024-01-16T02:00:53.777Z,-2.58
2024-01-16T02:03:22.555Z,-2.61
2024-01-16T02:05:50.151Z,-2.59
2024-01-16T02:08:16.937Z,-2.54
2024-01-16T02:10:46.448Z,-2.54
2024-01-16T02:13:13.053Z,-2.54
2024-01-16T02:15:40.877Z,-2.46
2024-01-16T02:18:07.749Z,-2.42
2024-01-16T02:20:34.407Z,-2.39
2024-01-16T02:23:04.878Z,-2.36
2024-01-16T02:25:33.193Z,-2.37
2024-01-16T02:28:01.057Z,-2.35
2024-01-16T02:30:27.637Z,-2.35
2024-01-16T02:32:54.170Z,-2.38
2024-01-16T02:35:20.863Z,-2.37
2024-01-16T02:37:47.765Z,-2.36
2024-01-16T02:40:14.306Z,-2.35
2024-01-16T02:42:42.187Z,-2.35
2024-01-16T02:45:09.439Z,-2.33
2024-01-16T02:47:36.034Z,-2.35
2024-01-16T02:50:03.538Z,-2.38
2024-01-16T02:52:30.055Z,-2.36
2024-01-16T02:54:56.452Z,-2.38
2024-01-16T02:57:22.883Z,-2.44
2024-01-16T02:59:50.744Z,-2.45
2024-01-16T03:02:17.238Z,-2.48
2024-01-16T03:04:43.775Z,-2.51
2024-01-16T03:07:10.519Z,-2.47
2024-01-16T03:09:37.088Z,-2.48
2024-01-16T03:12:04.076Z,-2.46
2024-01-16T03:14:30.619Z,-2.42
2024-01-16T03:16:58.461Z,-2.36
2024-01-16T03:19:24.887Z,-2.34
2024-01-16T03:21:51.342Z,-2.36
2024-01-16T03:24:17.953Z,-2.36
2024-01-16T03:26:44.433Z,-2.37
2024-01-16T03:29:11.459Z,-2.31
2024-01-16T03:31:38.188Z,-2.31
2024-01-16T03:34:06.059Z,-2.30
2024-01-16T03:36:32.533Z,-2.28
2024-01-16T03:38:58.990Z,-2.25
2024-01-16T03:41:25.468Z,-2.20
2024-01-16T03:43:52.091Z,-2.18
2024-01-16T03:46:18.508Z,-2.18
2024-01-16T03:48:45.057Z,-2.19
2024-01-16T03:51:13.097Z,-2.21
2024-01-16T03:53:39.524Z,-2.17
2024-01-16T03:56:06.352Z,-2.18
2024-01-16T03:58:33.048Z,-2.22
2024-01-16T04:00:59.678Z,-2.24
2024-01-16T04:03:26.602Z,-2.21
2024-01-16T04:05:53.466Z,-2.17
2024-01-16T04:08:21.749Z,-2.19
2024-01-16T04:10:48.267Z,-2.19
2024-01-16T04:13:14.812Z,-2.21
2024-01-16T04:15:41.435Z,-2.19
2024-01-16T04:18:08.129Z,-2.24
2024-01-16T04:20:34.625Z,-2.27
2024-01-16T04:23:01.087Z,-2.30
2024-01-16T04:25:28.909Z,-2.31
2024-01-16T04:27:55.322Z,-2.31
2024-01-16T04:30:21.878Z,-2.28
2024-01-16T04:32:48.541Z,-2.28
2024-01-16T04:35:15.164Z,-2.30
2024-01-16T04:37:41.872Z,-2.32
2024-01-16T04:40:09.186Z,-2.26
2024-01-16T04:42:36.917Z,-2.25
2024-01-16T04:45:03.486Z,-2.30
2024-01-16T04:47:30.139Z,-2.31
2024-01-16T04:49:57.109Z,-2.33
2024-01-16T04:52:23.580Z,-2.32
2024-01-16T04:54:50.295Z,-2.33
2024-01-16T04:57:17.000Z,-2.32
2024-01-16T04:59:44.766Z,-2.31
2024-01-16T05:02:11.617Z,-2.26
2024-01-16T05:04:38.579Z,-2.24
2024-01-16T05:07:05.318Z,-2.27
2024-01-16T05:09:31.764Z,-2.28
2024-01-16T05:11:58.482Z,-2.31
2024-01-16T05:14:24.996Z,-2.29
2024-01-16T05:16:53.071Z,-2.31
2024-01-16T05:19:19.767Z,-2.34
2024-01-16T05:21:46.368Z,-2.31
2024-01-16T05:24:12.853Z,-2.34
2024-01-16T05:26:39.376Z,-2.38
2024-01-16T05:29:05.799Z,-2.35
2024-01-16T05:31:32.536Z,-2.38
2024-01-16T05:34:00.622Z,-2.38
2024-01-16T05:36:27.921Z,-2.41
2024-01-16T05:38:54.520Z,-2.42
2024-01-16T05:41:21.259Z,-2.46
2024-01-16T05:43:47.692Z,-2.47
2024-01-16T05:46:14.108Z,-2.45
2024-01-16T05:48:40.695Z,-2.44
2024-01-16T05:51:08.571Z,-2.46
2024-01-16T05:53:35.447Z,-2.47
2024-01-16T05:56:01.945Z,-2.47
2024-01-16T05:58:28.489Z,-2.48
2024-01-16T06:00:55.141Z,-2.48
2024-01-16T06:03:21.537Z,-2.45
2024-01-16T06:05:48.103Z,-2.49
2024-01-16T06:08:16.066Z,-2.52
2024-01-16T06:10:42.500Z,-2.54
2024-01-16T06:13:08.995Z,-2.52
2024-01-16T06:15:35.708Z,-2.52
2024-01-16T06:18:02.394Z,-2.54
2024-01-16T06:20:29.260Z,-2.53
2024-01-16T06:22:55.993Z,-2.55
2024-01-16T06:25:24.176Z,-2.53
2024-01-16T06:27:50.870Z,-2.57
2024-01-16T06:30:17.887Z,-2.57
2024-01-16T06:32:44.625Z,-2.59
2024-01-16T06:35:13.422Z,-2.64
2024-01-16T06:37:40.139Z,-2.68
2024-01-16T06:40:07.497Z,-2.69
2024-01-16T06:42:35.220Z,-2.72
2024-01-16T06:45:01.709Z,-2.77
2024-01-16T06:47:28.408Z,-2.78
2024-01-16T06:49:55.017Z,-2.81
2024-01-16T06:52:21.521Z,-2.85
2024-01-16T06:54:47.917Z,-2.91
2024-01-16T06:57:14.430Z,-2.87
2024-01-16T06:59:42.197Z,-2.91
2024-01-16T07:02:08.920Z,-2.92
2024-01-16T07:04:35.732Z,-2.95
2024-01-16T07:07:02.486Z,-2.92
2024-01-16T07:09:29.029Z,-2.94
2024-01-16T07:11:55.650Z,-2.95
2024-01-16T07:14:22.158Z,-2.90
2024-01-16T07:16:50.108Z,-2.89
2024-01-16T07:19:16.698Z,-2.89
2024-01-16T07:21:43.418Z,-2.85
2024-01-16T07:24:10.048Z,-2.86
2024-01-16T07:26:36.504Z,-2.86
2024-01-16T07:29:03.012Z,-2.79
2024-01-16T07:31:29.491Z,-2.75
2024-01-16T07:33:57.462Z,-2.76
2024-01-16T07:36:24.289Z,-2.70
2024-01-16T07:38:50.815Z,-2.65
2024-01-16T07:41:17.397Z,-2.68
2024-01-16T07:43:45.511Z,-2.68
2024-01-16T07:46:13.534Z,-2.64
2024-01-16T07:48:40.183Z,-2.64
2024-01-16T07:51:08.098Z,-2.60
2024-01-16T07:53:34.932Z,-2.58
2024-01-16T07:56:01.728Z,-2.51
2024-01-16T07:58:28.245Z,-2.51
2024-01-16T08:00:54.906Z,-2.43
2024-01-16T08:03:21.393Z,-2.38
2024-01-16T08:05:47.988Z,-2.36
2024-01-16T08:08:16.226Z,-2.35
2024-01-16T08:10:42.970Z,-2.28
2024-01-16T08:13:09.545Z,-2.27
2024-01-16T08:15:36.050Z,-2.25
2024-01-16T08:18:02.895Z,-2.19
2024-01-16T08:20:29.449Z,-2.18
2024-01-16T08:22:56.002Z,-2.16
2024-01-16T08:25:24.130Z,-2.13
2024-01-16T08:27:50.607Z,-2.11
2024-01-16T08:30:17.682Z,-2.06
2024-01-16T08:32:44.560Z,-2.02
2024-01-16T08:35:11.229Z,-1.95
2024-01-16T08:37:37.727Z,-1.92
2024-01-16T08:40:04.835Z,-1.88
2024-01-16T08:42:32.864Z,-1.88
2024-01-16T08:44:59.400Z,-1.88
2024-01-16T08:47:26.082Z,-1.85
2024-01-16T08:49:52.819Z,-1.75
2024-01-16T08:52:19.366Z,-1.75
2024-01-16T08:54:45.801Z,-1.77
2024-01-16T08:57:14.481Z,-1.80
2024-01-16T08:59:44.087Z,-1.83
2024-01-16T09:02:10.595Z,-1.79
2024-01-16T09:04:37.241Z,-1.79
2024-01-16T09:07:04.332Z,-1.71
2024-01-16T09:09:31.284Z,-1.67
2024-01-16T09:11:57.840Z,-1.62
2024-01-16T09:14:24.484Z,-1.65
2024-01-16T09:16:52.304Z,-1.67
2024-01-16T09:19:18.958Z,-1.64
2024-01-16T09:21:45.500Z,-1.60
2024-01-16T09:24:11.948Z,-1.59
2024-01-16T09:26:38.618Z,-1.57
2024-01-16T09:29:05.073Z,-1.52
2024-01-16T09:31:31.513Z,-1.45
2024-01-16T09:33:59.419Z,-1.47
2024-01-16T09:36:25.828Z,-1.41
2024-01-16T09:38:52.481Z,-1.30
2024-01-16T09:41:18.916Z,-1.19
2024-01-16T09:43:47.421Z,-1.08
2024-01-16T09:46:17.101Z,-1.00
2024-01-16T09:48:45.350Z,-0.92
2024-01-16T09:51:13.915Z,-0.86
2024-01-16T09:53:40.523Z,-0.88
2024-01-16T09:56:13.593Z,-0.86
2024-01-16T09:58:40.300Z,-0.87
2024-01-16T10:01:06.833Z,-0.78
2024-01-16T10:03:35.592Z,-0.76
2024-01-16T10:06:05.113Z,-0.71
2024-01-16T10:08:33.340Z,-0.82
2024-01-16T10:11:00.105Z,-0.99
2024-01-16T10:13:26.846Z,-1.10
2024-01-16T10:15:53.582Z,-1.13
2024-01-16T10:18:24.009Z,-1.18
2024-01-16T10:20:50.613Z,-1.22
2024-01-16T10:23:23.507Z,-1.22
2024-01-16T10:26:05.786Z,-1.22
2024-01-16T10:28:32.549Z,-1.17
2024-01-16T10:31:03.204Z,-1.16
2024-01-16T10:33:30.297Z,-1.09
2024-01-16T10:36:08.929Z,-0.96
2024-01-16T10:38:36.176Z,-0.83
2024-01-16T10:41:11.207Z,-0.75
2024-01-16T10:43:38.444Z,-0.70
2024-01-16T10:46:09.710Z,-0.57
2024-01-16T10:48:36.823Z,-0.55
2024-01-16T10:51:03.632Z,-0.54
2024-01-16T10:53:34.320Z,-0.42
2024-01-16T10:56:02.055Z,-0.30
2024-01-16T10:58:31.799Z,-0.09
2024-01-16T11:01:02.557Z,-0.00
2024-01-16T11:03:36.707Z,0.08
2024-01-16T11:06:07.337Z,-0.10
2024-01-16T11:08:35.843Z,-0.15
2024-01-16T11:11:03.615Z,-0.22
2024-01-16T11:13:33.699Z,-0.19
2024-01-16T11:16:00.494Z,-0.21
2024-01-16T11:18:28.635Z,-0.23
2024-01-16T11:21:04.926Z,-0.15
2024-01-16T11:23:34.679Z,-0.20
2024-01-16T11:26:01.430Z,-0.25
2024-01-16T11:28:29.431Z,-0.28
2024-01-16T11:30:57.818Z,-0.31
2024-01-16T11:33:43.445Z,-0.22
2024-01-16T11:36:43.393Z,-0.42
2024-01-16T11:39:11.915Z,-0.54
2024-01-16T11:41:49.840Z,-0.69
2024-01-16T11:44:37.957Z,-0.71
2024-01-16T11:47:06.943Z,-0.67
2024-01-16T11:49:33.679Z,-0.67
2024-01-16T11:52:00.653Z,-0.54
2024-01-16T11:54:27.064Z,-0.45
2024-01-16T11:57:13.802Z,-0.41
2024-01-16T11:59:58.408Z,-0.38
2024-01-16T12:02:30.795Z,-0.44
2024-01-16T12:04:57.421Z,-0.44
2024-01-16T12:07:24.119Z,-0.48
2024-01-16T12:09:50.661Z,-0.45
2024-01-16T12:12:17.637Z,-0.43
2024-01-16T12:14:52.435Z,-0.44
2024-01-16T12:17:18.972Z,-0.36
2024-01-16T12:19:46.996Z,-0.34
2024-01-16T12:22:15.337Z,-0.40
2024-01-16T12:24:42.331Z,-0.42
2024-01-16T12:27:08.888Z,-0.43
2024-01-16T12:29:36.237Z,-0.50
2024-01-16T12:32:06.672Z,-0.50
2024-01-16T12:34:33.286Z,-0.56
2024-01-16T12:37:06.959Z,-0.57
2024-01-16T12:39:33.588Z,-0.56
2024-01-16T12:42:00.546Z,-0.55
2024-01-16T12:44:27.935Z,-0.38
2024-01-16T12:46:55.074Z,-0.10
2024-01-16T12:49:21.920Z,-0.02
2024-01-16T12:51:48.525Z,0.04
2024-01-16T12:54:18.079Z,0.05
2024-01-16T12:56:44.758Z,-0.09
2024-01-16T13:01:41.158Z,-0.17
2024-01-16T13:04:08.012Z,-0.10
2024-01-16T13:06:35.273Z,0.05
2024-01-16T13:09:09.095Z,0.14
2024-01-16T13:11:47.995Z,0.28
2024-01-16T13:14:14.835Z,0.32
2024-01-16T13:16:41.370Z,0.60
2024-01-16T13:19:07.905Z,0.60
2024-01-16T13:21:34.373Z,0.60
2024-01-16T13:24:00.768Z,0.56
2024-01-16T13:26:27.262Z,0.47
2024-01-16T13:28:55.160Z,0.58
2024-01-16T13:31:21.888Z,0.43
2024-01-16T13:33:48.634Z,0.42
2024-01-16T13:36:16.724Z,0.30
2024-01-16T13:38:43.730Z,0.26
2024-01-16T13:41:10.526Z,0.20
2024-01-16T13:43:37.003Z,0.29
2024-01-16T13:46:04.938Z,0.28
2024-01-16T13:48:31.668Z,0.29
2024-01-16T13:50:58.212Z,0.38
2024-01-16T13:53:24.905Z,0.16
2024-01-16T13:55:51.861Z,0.06
2024-01-16T13:58:18.337Z,-0.12
2024-01-16T14:00:45.089Z,-0.20
2024-01-16T14:03:14.053Z,-0.27
2024-01-16T14:05:41.179Z,-0.22
2024-01-16T14:08:07.673Z,-0.31
2024-01-16T14:10:34.426Z,-0.36
2024-01-16T14:13:00.980Z,-0.41
2024-01-16T14:15:27.448Z,-0.40
2024-01-16T14:17:56.069Z,-0.39
2024-01-16T14:20:27.560Z,-0.43
2024-01-16T14:22:54.978Z,-0.48
2024-01-16T14:25:22.002Z,-0.50
2024-01-16T14:27:56.479Z,-0.49
2024-01-16T14:30:23.016Z,-0.49
2024-01-16T14:32:49.627Z,-0.56
2024-01-16T14:35:16.126Z,-0.59
2024-01-16T14:37:44.553Z,-0.57
2024-01-16T14:40:11.486Z,-0.62
2024-01-16T14:42:37.931Z,-0.66
2024-01-16T14:45:05.321Z,-0.83
2024-01-16T14:47:31.984Z,-0.85
2024-01-16T14:49:58.488Z,-0.85
2024-01-16T14:52:25.093Z,-0.88
2024-01-16T14:54:52.884Z,-0.92
2024-01-16T14:57:19.604Z,-0.83
2024-01-16T14:59:46.063Z,-0.84
2024-01-16T15:02:12.439Z,-1.00
2024-01-16T15:04:39.383Z,-1.08
2024-01-16T15:07:05.908Z,-1.17
2024-01-16T15:09:32.527Z,-1.18
2024-01-16T15:12:00.558Z,-1.21
2024-01-16T15:14:27.148Z,-1.25
2024-01-16T15:16:53.857Z,-1.35
2024-01-16T15:19:20.481Z,-1.42
2024-01-16T15:21:46.989Z,-1.48
2024-01-16T15:24:14.389Z,-1.51
2024-01-16T15:26:41.113Z,-1.56
2024-01-16T15:29:09.302Z,-1.58
2024-01-16T15:31:35.785Z,-1.60
2024-01-16T15:34:02.255Z,-1.64
2024-01-16T15:36:28.787Z,-1.66
2024-01-16T15:38:55.591Z,-1.71
2024-01-16T15:41:22.218Z,-1.73
2024-01-16T15:43:48.744Z,-1.82
2024-01-16T15:46:16.577Z,-1.88
2024-01-16T15:48:43.171Z,-1.88
2024-01-16T15:51:10.800Z,-1.95
2024-01-16T15:53:37.729Z,-2.03
2024-01-16T15:56:04.761Z,-2.08
2024-01-16T15:58:31.289Z,-2.10
2024-01-16T16:00:57.761Z,-2.14
2024-01-16T16:03:26.547Z,-2.16
2024-01-16T16:05:53.327Z,-2.20
2024-01-16T16:08:19.963Z,-2.24
2024-01-16T16:10:46.870Z,-2.28
2024-01-16T16:13:13.383Z,-2.33
2024-01-16T16:15:40.494Z,-2.35
2024-01-16T16:18:07.436Z,-2.36
2024-01-16T16:20:35.369Z,-2.38
2024-01-16T16:23:02.105Z,-2.45
2024-01-16T16:25:28.699Z,-2.51
2024-01-16T16:27:55.166Z,-2.56
2024-01-16T16:30:21.843Z,-2.61
2024-01-16T16:32:48.405Z,-2.63
2024-01-16T16:35:15.216Z,-2.68
2024-01-16T16:37:43.074Z,-2.72
2024-01-16T16:40:10.590Z,-2.75
2024-01-16T16:42:37.309Z,-2.81
2024-01-16T16:45:04.636Z,-2.85
2024-01-16T16:47:31.229Z,-2.88
2024-01-16T16:49:57.782Z,-2.91
2024-01-16T16:52:24.328Z,-2.86
2024-01-16T16:54:52.047Z,-2.88
2024-01-16T16:57:18.574Z,-2.90
2024-01-16T16:59:45.044Z,-2.88
2024-01-16T17:02:11.623Z,-2.89
2024-01-16T17:04:38.354Z,-2.89
2024-01-16T17:07:05.231Z,-2.93
2024-01-16T17:09:31.805Z,-2.98
2024-01-16T17:11:59.819Z,-3.04
2024-01-16T17:14:26.619Z,-3.09
2024-01-16T17:16:53.091Z,-3.11
2024-01-16T17:19:19.773Z,-3.11
2024-01-16T17:21:46.181Z,-3.12
2024-01-16T17:24:12.628Z,-3.10
2024-01-16T17:26:39.429Z,-3.13
2024-01-16T17:29:07.460Z,-3.15
2024-01-16T17:31:33.871Z,-3.13
2024-01-16T17:34:00.582Z,-3.14
2024-01-16T17:36:27.161Z,-3.13
2024-01-16T17:38:53.988Z,-3.15
2024-01-16T17:41:20.477Z,-3.11
2024-01-16T17:43:47.020Z,-3.08
2024-01-16T17:46:14.866Z,-3.08
2024-01-16T17:48:41.582Z,-3.02
2024-01-16T17:51:08.909Z,-2.95
2024-01-16T17:53:35.404Z,-2.98
2024-01-16T17:56:01.880Z,-3.02
2024-01-16T17:58:28.329Z,-3.05
2024-01-16T18:00:54.936Z,-3.08
2024-01-16T18:03:32.681Z,-3.03
2024-01-16T18:06:08.178Z,-3.03
2024-01-16T18:08:34.936Z,-3.09
2024-01-16T18:11:01.410Z,-3.14
2024-01-16T18:13:28.156Z,-3.12
2024-01-16T18:15:54.625Z,-3.16
2024-01-16T18:18:21.502Z,-3.15
2024-01-16T18:20:49.448Z,-3.16
2024-01-16T18:23:16.001Z,-3.14
2024-01-16T18:25:42.459Z,-3.12
2024-01-16T18:28:08.895Z,-3.16
2024-01-16T18:30:35.679Z,-3.16
2024-01-16T18:33:02.417Z,-3.22
2024-01-16T18:35:29.253Z,-3.24
2024-01-16T18:37:57.143Z,-3.26
2024-01-16T18:40:23.587Z,-3.30
2024-01-16T18:42:50.213Z,-3.26
2024-01-16T18:45:20.036Z,-3.25
2024-01-16T18:47:46.620Z,-3.26
2024-01-16T18:50:15.409Z,-3.34
2024-01-16T18:52:42.129Z,-3.35
2024-01-16T18:55:10.579Z,-3.41
2024-01-16T18:57:37.531Z,-3.42
2024-01-16T19:00:06.555Z,-3.47
2024-01-16T19:02:34.390Z,-3.51
2024-01-16T19:05:01.027Z,-3.48
2024-01-16T19:07:27.938Z,-3.55
2024-01-16T19:09:54.390Z,-3.55
2024-01-16T19:12:22.400Z,-3.57
2024-01-16T19:14:49.250Z,-3.60
2024-01-16T19:17:15.846Z,-3.65
2024-01-16T19:19:42.711Z,-3.71
2024-01-16T19:22:10.791Z,-3.75
2024-01-16T19:24:37.212Z,-3.82
2024-01-16T19:27:07.407Z,-3.84
2024-01-16T19:29:35.354Z,-3.85
2024-01-16T19:32:01.860Z,-3.90
2024-01-16T19:34:28.587Z,-3.93
2024-01-16T19:36:55.032Z,-3.89
2024-01-16T19:39:21.436Z,-3.97
2024-01-16T19:41:48.062Z,-4.10
2024-01-16T19:44:14.936Z,-4.18
2024-01-16T19:46:43.324Z,-4.20
2024-01-16T19:49:10.334Z,-4.17
2024-01-16T19:51:39.891Z,-4.13
2024-01-16T19:54:06.569Z,-4.17
2024-01-16T19:56:33.559Z,-4.18
2024-01-16T19:58:59.976Z,-4.29
2024-01-16T20:01:29.725Z,-4.30
2024-01-16T20:03:57.880Z,-4.35
2024-01-16T20:06:24.452Z,-4.37
2024-01-16T20:08:51.914Z,-4.43
2024-01-16T20:11:25.631Z,-4.40
2024-01-16T20:13:52.107Z,-4.36
2024-01-16T20:16:18.506Z,-4.33
2024-01-16T20:18:45.221Z,-4.34
2024-01-16T20:21:13.265Z,-4.44
2024-01-16T20:23:39.880Z,-4.54
2024-01-16T20:26:06.517Z,-4.63
2024-01-16T20:28:32.894Z,-4.74
2024-01-16T20:30:59.673Z,-4.83
2024-01-16T20:33:26.261Z,-4.92
2024-01-16T20:35:52.835Z,-4.98
2024-01-16T20:38:20.758Z,-5.05
2024-01-16T20:40:47.523Z,-5.10
2024-01-16T20:43:16.318Z,-5.18
2024-01-16T20:45:42.761Z,-5.24
2024-01-16T20:48:09.403Z,-5.29
2024-01-16T20:50:35.943Z,-5.35
2024-01-16T20:53:02.640Z,-5.41
2024-01-16T20:55:30.405Z,-5.46
2024-01-16T20:57:57.075Z,-5.51
2024-01-16T21:00:23.494Z,-5.58
2024-01-16T21:02:50.004Z,-5.65
2024-01-16T21:05:16.629Z,-5.68
2024-01-16T21:07:43.484Z,-5.70
2024-01-16T21:10:10.522Z,-5.73
2024-01-16T21:12:38.356Z,-5.78
2024-01-16T21:15:05.945Z,-5.81
2024-01-16T21:17:32.712Z,-5.82
2024-01-16T21:19:59.439Z,-5.85
2024-01-16T21:22:33.336Z,-5.88
2024-01-16T21:25:03.554Z,-5.96
2024-01-16T21:27:29.998Z,-5.99
2024-01-16T21:29:57.999Z,-6.03
2024-01-16T21:32:24.628Z,-6.07
2024-01-16T21:34:51.066Z,-6.10
2024-01-16T21:37:17.896Z,-6.12
2024-01-16T21:39:44.349Z,-6.16
2024-01-16T21:42:10.822Z,-6.12
2024-01-16T21:44:37.308Z,-6.12
2024-01-16T21:47:05.234Z,-6.07
2024-01-16T21:49:31.748Z,-6.10
2024-01-16T21:51:58.251Z,-6.12
2024-01-16T21:54:24.911Z,-6.05
2024-01-16T21:56:51.462Z,-6.04
2024-01-16T21:59:17.950Z,-5.99
2024-01-16T22:01:45.659Z,-5.98
2024-01-16T22:04:13.721Z,-5.99
2024-01-16T22:06:40.189Z,-5.93
2024-01-16T22:09:07.140Z,-5.92
2024-01-16T22:11:33.717Z,-5.95
2024-01-16T22:14:00.173Z,-6.02
2024-01-16T22:16:26.593Z,-6.06
2024-01-16T22:18:55.769Z,-6.13
2024-01-16T22:21:25.173Z,-6.18
2024-01-16T22:23:51.713Z,-6.25
2024-01-16T22:26:18.160Z,-6.33
2024-01-16T22:28:44.594Z,-6.38
2024-01-16T22:31:11.135Z,-6.43
2024-01-16T22:33:37.995Z,-6.49
2024-01-16T22:36:05.536Z,-6.54
2024-01-16T22:38:33.669Z,-6.60
2024-01-16T22:41:00.088Z,-6.64
2024-01-16T22:43:26.544Z,-6.69
2024-01-16T22:45:53.132Z,-6.73
2024-01-16T22:48:19.849Z,-6.75
2024-01-16T22:50:46.762Z,-6.76
2024-01-16T22:53:13.386Z,-6.78
2024-01-16T22:55:43.306Z,-6.81
2024-01-16T22:58:09.997Z,-6.85
2024-01-16T23:00:36.812Z,-6.89
2024-01-16T23:03:03.732Z,-6.93
2024-01-16T23:05:30.418Z,-6.96
2024-01-16T23:07:56.956Z,-6.97
2024-01-16T23:10:23.579Z,-6.96
2024-01-16T23:12:51.459Z,-6.92
2024-01-16T23:15:18.079Z,-6.96
2024-01-16T23:17:44.783Z,-7.01
2024-01-16T23:20:12.715Z,-7.05
2024-01-16T23:22:39.188Z,-7.09
2024-01-16T23:25:06.947Z,-7.13
2024-01-16T23:27:33.767Z,-7.17
2024-01-16T23:30:01.595Z,-7.17
2024-01-16T23:32:28.100Z,-7.18
2024-01-16T23:34:54.520Z,-7.21
2024-01-16T23:37:20.996Z,-7.22
2024-01-16T23:39:47.410Z,-7.24
2024-01-16T23:42:14.121Z,-7.27
2024-01-16T23:44:40.545Z,-7.28
2024-01-16T23:47:08.579Z,-7.29
2024-01-16T23:49:34.999Z,-7.33
2024-01-16T23:52:01.588Z,-7.35
2024-01-16T23:54:28.440Z,-7.37
2024-01-16T23:56:54.916Z,-7.42
2024-01-16T23:59:21.360Z,-7.44
